sensor_id;sensor_type;location;lat;lon;timestamp;P1;durP1;ratioP1;P2;durP2;ratioP2
9563;SDS011;4820;50.870;4.702;2024-01-15T00:01:49;18.47;;;11.80;;
9563;SDS011;4820;50.870;4.702;2024-01-15T00:04:15;20.37;;;11.60;;
9563;SDS011;4820;50.870;4.702;2024-01-15T00:06:41;18.33;;;10.50;;
9563;SDS011;4820;50.870;4.702;2024-01-15T00:09:07;17.60;;;11.37;;
9563;SDS011;4820;50.870;4.702;2024-01-15T00:11:32;18.00;;;11.50;;
9563;SDS011;4820;50.870;4.702;2024-01-15T00:13:58;15.87;;;10.60;;
9563;SDS011;4820;50.870;4.702;2024-01-15T00:16:24;15.17;;;10.23;;
9563;SDS011;4820;50.870;4.702;2024-01-15T00:18:50;18.47;;;10.87;;
9563;SDS011;4820;50.870;4.702;2024-01-15T00:21:16;18.13;;;11.57;;
9563;SDS011;4820;50.870;4.702;2024-01-15T00:23:44;18.03;;;10.77;;
9563;SDS011;4820;50.870;4.702;2024-01-15T00:26:10;17.97;;;11.03;;
9563;SDS011;4820;50.870;4.702;2024-01-15T00:28:36;18.27;;;10.77;;
9563;SDS011;4820;50.870;4.702;2024-01-15T00:31:02;16.47;;;10.03;;
9563;SDS011;4820;50.870;4.702;2024-01-15T00:33:29;18.83;;;10.93;;
9563;SDS011;4820;50.870;4.702;2024-01-15T00:35:55;16.90;;;10.47;;
9563;SDS011;4820;50.870;4.702;2024-01-15T00:38:20;16.63;;;10.37;;
9563;SDS011;4820;50.870;4.702;2024-01-15T00:40:46;18.03;;;10.93;;
9563;SDS011;4820;50.870;4.702;2024-01-15T00:43:12;16.17;;;10.13;;
9563;SDS011;4820;50.870;4.702;2024-01-15T00:45:38;17.03;;;10.50;;
9563;SDS011;4820;50.870;4.702;2024-01-15T00:48:04;16.03;;;10.07;;
9563;SDS011;4820;50.870;4.702;2024-01-15T00:50:30;15.30;;;9.87;;
9563;SDS011;4820;50.870;4.702;2024-01-15T00:52:56;14.17;;;9.10;;
9563;SDS011;4820;50.870;4.702;2024-01-15T00:55:22;15.70;;;10.13;;
9563;SDS011;4820;50.870;4.702;2024-01-15T00:57:47;14.60;;;9.50;;
9563;SDS011;4820;50.870;4.702;2024-01-15T01:00:13;15.97;;;9.63;;
9563;SDS011;4820;50.870;4.702;2024-01-15T01:02:39;13.60;;;9.27;;
9563;SDS011;4820;50.870;4.702;2024-01-15T01:05:05;14.07;;;9.33;;
9563;SDS011;4820;50.870;4.702;2024-01-15T01:07:31;14.03;;;9.03;;
9563;SDS011;4820;50.870;4.702;2024-01-15T01:09:56;13.23;;;8.67;;
9563;SDS011;4820;50.870;4.702;2024-01-15T01:12:22;15.00;;;9.00;;
9563;SDS011;4820;50.870;4.702;2024-01-15T01:14:48;14.57;;;8.90;;
9563;SDS011;4820;50.870;4.702;2024-01-15T01:17:13;13.40;;;9.33;;
9563;SDS011;4820;50.870;4.702;2024-01-15T01:19:39;15.27;;;9.57;;
9563;SDS011;4820;50.870;4.702;2024-01-15T01:22:05;14.03;;;9.40;;
9563;SDS011;4820;50.870;4.702;2024-01-15T01:24:31;12.60;;;8.73;;
9563;SDS011;4820;50.870;4.702;2024-01-15T01:26:56;14.63;;;7.90;;
9563;SDS011;4820;50.870;4.702;2024-01-15T01:29:22;11.17;;;7.93;;
9563;SDS011;4820;50.870;4.702;2024-01-15T01:31:48;11.53;;;7.00;;
9563;SDS011;4820;50.870;4.702;2024-01-15T01:34:14;10.60;;;7.00;;
9563;SDS011;4820;50.870;4.702;2024-01-15T01:36:41;10.23;;;7.10;;
9563;SDS011;4820;50.870;4.702;2024-01-15T01:39:07;11.20;;;7.17;;
9563;SDS011;4820;50.870;4.702;2024-01-15T01:41:34;11.63;;;7.57;;
9563;SDS011;4820;50.870;4.702;2024-01-15T01:44:00;10.37;;;7.07;;
9563;SDS011;4820;50.870;4.702;2024-01-15T01:46:26;9.73;;;7.30;;
9563;SDS011;4820;50.870;4.702;2024-01-15T01:48:56;10.25;;;7.43;;
9563;SDS011;4820;50.870;4.702;2024-01-15T01:51:23;10.13;;;7.20;;
9563;SDS011;4820;50.870;4.702;2024-01-15T01:53:50;9.83;;;7.20;;
9563;SDS011;4820;50.870;4.702;2024-01-15T01:56:16;8.27;;;6.27;;
9563;SDS011;4820;50.870;4.702;2024-01-15T01:58:43;10.93;;;7.03;;
9563;SDS011;4820;50.870;4.702;2024-01-15T02:01:10;11.00;;;6.67;;
9563;SDS011;4820;50.870;4.702;2024-01-15T02:03:38;9.47;;;7.23;;
9563;SDS011;4820;50.870;4.702;2024-01-15T02:06:05;10.10;;;6.70;;
9563;SDS011;4820;50.870;4.702;2024-01-15T02:08:31;9.83;;;6.40;;
9563;SDS011;4820;50.870;4.702;2024-01-15T02:10:57;9.90;;;6.40;;
9563;SDS011;4820;50.870;4.702;2024-01-15T02:13:22;8.23;;;6.40;;
9563;SDS011;4820;50.870;4.702;2024-01-15T02:15:48;9.93;;;6.40;;
9563;SDS011;4820;50.870;4.702;2024-01-15T02:18:14;9.30;;;6.20;;
9563;SDS011;4820;50.870;4.702;2024-01-15T02:20:39;10.00;;;6.70;;
9563;SDS011;4820;50.870;4.702;2024-01-15T02:23:09;7.97;;;5.77;;
9563;SDS011;4820;50.870;4.702;2024-01-15T02:25:39;9.47;;;6.10;;
9563;SDS011;4820;50.870;4.702;2024-01-15T02:28:10;7.90;;;5.77;;
9563;SDS011;4820;50.870;4.702;2024-01-15T02:30:38;8.80;;;5.77;;
9563;SDS011;4820;50.870;4.702;2024-01-15T02:33:05;6.57;;;5.37;;
9563;SDS011;4820;50.870;4.702;2024-01-15T02:35:31;7.82;;;5.72;;
9563;SDS011;4820;50.870;4.702;2024-01-15T02:37:58;8.03;;;5.60;;
9563;SDS011;4820;50.870;4.702;2024-01-15T02:40:23;8.30;;;6.03;;
9563;SDS011;4820;50.870;4.702;2024-01-15T02:42:49;7.43;;;5.20;;
9563;SDS011;4820;50.870;4.702;2024-01-15T02:45:15;7.90;;;5.07;;
9563;SDS011;4820;50.870;4.702;2024-01-15T02:47:41;7.00;;;4.93;;
9563;SDS011;4820;50.870;4.702;2024-01-15T02:50:06;7.87;;;5.27;;
9563;SDS011;4820;50.870;4.702;2024-01-15T02:52:32;7.47;;;5.00;;
9563;SDS011;4820;50.870;4.702;2024-01-15T02:54:58;8.37;;;5.47;;
9563;SDS011;4820;50.870;4.702;2024-01-15T02:57:23;9.33;;;5.37;;
9563;SDS011;4820;50.870;4.702;2024-01-15T02:59:49;10.33;;;5.37;;
9563;SDS011;4820;50.870;4.702;2024-01-15T03:02:15;8.10;;;5.10;;
9563;SDS011;4820;50.870;4.702;2024-01-15T03:04:44;7.17;;;5.00;;
9563;SDS011;4820;50.870;4.702;2024-01-15T03:07:10;8.10;;;5.57;;
9563;SDS011;4820;50.870;4.702;2024-01-15T03:09:35;7.13;;;4.43;;
9563;SDS011;4820;50.870;4.702;2024-01-15T03:12:01;6.43;;;4.93;;
9563;SDS011;4820;50.870;4.702;2024-01-15T03:14:27;7.93;;;4.70;;
9563;SDS011;4820;50.870;4.702;2024-01-15T03:16:53;7.57;;;4.73;;
9563;SDS011;4820;50.870;4.702;2024-01-15T03:19:19;11.37;;;4.77;;
9563;SDS011;4820;50.870;4.702;2024-01-15T03:21:45;5.80;;;4.57;;
9563;SDS011;4820;50.870;4.702;2024-01-15T03:24:10;7.77;;;4.83;;
9563;SDS011;4820;50.870;4.702;2024-01-15T03:26:36;6.40;;;5.07;;
9563;SDS011;4820;50.870;4.702;2024-01-15T03:29:02;5.97;;;4.77;;
9563;SDS011;4820;50.870;4.702;2024-01-15T03:31:27;5.90;;;4.43;;
9563;SDS011;4820;50.870;4.702;2024-01-15T03:33:53;6.63;;;4.40;;
9563;SDS011;4820;50.870;4.702;2024-01-15T03:36:19;7.17;;;5.07;;
9563;SDS011;4820;50.870;4.702;2024-01-15T03:38:45;6.10;;;4.40;;
9563;SDS011;4820;50.870;4.702;2024-01-15T03:41:10;6.30;;;4.33;;
9563;SDS011;4820;50.870;4.702;2024-01-15T03:43:36;5.57;;;4.40;;
9563;SDS011;4820;50.870;4.702;2024-01-15T03:46:02;6.57;;;4.70;;
9563;SDS011;4820;50.870;4.702;2024-01-15T03:48:29;7.40;;;4.70;;
9563;SDS011;4820;50.870;4.702;2024-01-15T03:50:55;7.03;;;4.60;;
9563;SDS011;4820;50.870;4.702;2024-01-15T03:53:21;9.17;;;5.20;;
9563;SDS011;4820;50.870;4.702;2024-01-15T03:55:46;7.83;;;5.93;;
9563;SDS011;4820;50.870;4.702;2024-01-15T03:58:12;6.93;;;5.60;;
9563;SDS011;4820;50.870;4.702;2024-01-15T04:00:40;10.87;;;6.13;;
9563;SDS011;4820;50.870;4.702;2024-01-15T04:03:06;9.00;;;6.20;;
9563;SDS011;4820;50.870;4.702;2024-01-15T04:05:31;12.00;;;7.00;;
9563;SDS011;4820;50.870;4.702;2024-01-15T04:07:58;8.63;;;6.43;;
9563;SDS011;4820;50.870;4.702;2024-01-15T04:10:24;10.83;;;6.80;;
9563;SDS011;4820;50.870;4.702;2024-01-15T04:12:49;9.87;;;6.87;;
9563;SDS011;4820;50.870;4.702;2024-01-15T04:15:15;13.07;;;7.30;;
9563;SDS011;4820;50.870;4.702;2024-01-15T04:17:41;11.93;;;7.70;;
9563;SDS011;4820;50.870;4.702;2024-01-15T04:20:07;10.87;;;7.57;;
9563;SDS011;4820;50.870;4.702;2024-01-15T04:22:36;11.63;;;7.90;;
9563;SDS011;4820;50.870;4.702;2024-01-15T04:25:02;11.57;;;8.73;;
9563;SDS011;4820;50.870;4.702;2024-01-15T04:27:28;13.37;;;8.50;;
9563;SDS011;4820;50.870;4.702;2024-01-15T04:29:54;14.43;;;9.00;;
9563;SDS011;4820;50.870;4.702;2024-01-15T04:32:20;12.03;;;9.53;;
9563;SDS011;4820;50.870;4.702;2024-01-15T04:34:45;12.87;;;9.27;;
9563;SDS011;4820;50.870;4.702;2024-01-15T04:37:11;13.63;;;9.20;;
9563;SDS011;4820;50.870;4.702;2024-01-15T04:39:38;13.20;;;9.53;;
9563;SDS011;4820;50.870;4.702;2024-01-15T04:42:04;13.90;;;9.07;;
9563;SDS011;4820;50.870;4.702;2024-01-15T04:44:30;14.50;;;9.87;;
9563;SDS011;4820;50.870;4.702;2024-01-15T04:46:55;15.07;;;10.33;;
9563;SDS011;4820;50.870;4.702;2024-01-15T04:49:21;14.30;;;9.73;;
9563;SDS011;4820;50.870;4.702;2024-01-15T04:51:47;16.13;;;10.13;;
9563;SDS011;4820;50.870;4.702;2024-01-15T04:54:12;14.07;;;10.23;;
9563;SDS011;4820;50.870;4.702;2024-01-15T04:56:42;15.67;;;10.30;;
9563;SDS011;4820;50.870;4.702;2024-01-15T04:59:09;13.37;;;9.43;;
9563;SDS011;4820;50.870;4.702;2024-01-15T05:01:35;15.20;;;10.37;;
9563;SDS011;4820;50.870;4.702;2024-01-15T05:04:01;14.97;;;10.37;;
9563;SDS011;4820;50.870;4.702;2024-01-15T05:06:27;15.57;;;10.27;;
9563;SDS011;4820;50.870;4.702;2024-01-15T05:08:53;15.70;;;9.87;;
9563;SDS011;4820;50.870;4.702;2024-01-15T05:11:18;13.30;;;9.80;;
9563;SDS011;4820;50.870;4.702;2024-01-15T05:13:44;12.93;;;9.70;;
9563;SDS011;4820;50.870;4.702;2024-01-15T05:16:10;13.20;;;9.13;;
9563;SDS011;4820;50.870;4.702;2024-01-15T05:18:35;14.87;;;10.20;;
9563;SDS011;4820;50.870;4.702;2024-01-15T05:21:02;13.67;;;9.30;;
9563;SDS011;4820;50.870;4.702;2024-01-15T05:23:29;10.80;;;8.27;;
9563;SDS011;4820;50.870;4.702;2024-01-15T05:25:56;13.17;;;8.20;;
9563;SDS011;4820;50.870;4.702;2024-01-15T05:28:22;13.50;;;8.10;;
9563;SDS011;4820;50.870;4.702;2024-01-15T05:30:48;12.17;;;7.97;;
9563;SDS011;4820;50.870;4.702;2024-01-15T05:33:15;12.97;;;8.20;;
9563;SDS011;4820;50.870;4.702;2024-01-15T05:35:41;13.13;;;8.10;;
9563;SDS011;4820;50.870;4.702;2024-01-15T05:38:07;12.23;;;8.20;;
9563;SDS011;4820;50.870;4.702;2024-01-15T05:40:33;13.60;;;8.20;;
9563;SDS011;4820;50.870;4.702;2024-01-15T05:42:58;12.23;;;7.75;;
9563;SDS011;4820;50.870;4.702;2024-01-15T05:45:26;12.00;;;7.50;;
9563;SDS011;4820;50.870;4.702;2024-01-15T05:47:52;10.87;;;7.50;;
9563;SDS011;4820;50.870;4.702;2024-01-15T05:50:17;10.07;;;6.67;;
9563;SDS011;4820;50.870;4.702;2024-01-15T05:52:43;10.00;;;6.80;;
9563;SDS011;4820;50.870;4.702;2024-01-15T05:55:09;12.33;;;7.10;;
9563;SDS011;4820;50.870;4.702;2024-01-15T05:57:35;9.90;;;6.23;;
9563;SDS011;4820;50.870;4.702;2024-01-15T06:00:01;9.37;;;5.60;;
9563;SDS011;4820;50.870;4.702;2024-01-15T06:02:28;8.47;;;5.23;;
9563;SDS011;4820;50.870;4.702;2024-01-15T06:04:53;8.80;;;5.87;;
9563;SDS011;4820;50.870;4.702;2024-01-15T06:07:19;9.37;;;5.03;;
9563;SDS011;4820;50.870;4.702;2024-01-15T06:09:45;5.93;;;4.70;;
9563;SDS011;4820;50.870;4.702;2024-01-15T06:12:10;7.53;;;4.70;;
9563;SDS011;4820;50.870;4.702;2024-01-15T06:14:36;7.93;;;4.80;;
9563;SDS011;4820;50.870;4.702;2024-01-15T06:17:02;6.87;;;4.00;;
9563;SDS011;4820;50.870;4.702;2024-01-15T06:19:27;7.67;;;4.53;;
9563;SDS011;4820;50.870;4.702;2024-01-15T06:21:53;5.90;;;4.10;;
9563;SDS011;4820;50.870;4.702;2024-01-15T06:24:19;7.13;;;4.27;;
9563;SDS011;4820;50.870;4.702;2024-01-15T06:26:46;5.67;;;3.93;;
9563;SDS011;4820;50.870;4.702;2024-01-15T06:29:12;5.33;;;3.50;;
9563;SDS011;4820;50.870;4.702;2024-01-15T06:31:38;6.77;;;3.40;;
9563;SDS011;4820;50.870;4.702;2024-01-15T06:34:03;7.33;;;3.33;;
9563;SDS011;4820;50.870;4.702;2024-01-15T06:36:29;4.93;;;3.17;;
9563;SDS011;4820;50.870;4.702;2024-01-15T06:38:55;5.40;;;3.43;;
9563;SDS011;4820;50.870;4.702;2024-01-15T06:41:21;6.77;;;3.20;;
9563;SDS011;4820;50.870;4.702;2024-01-15T06:43:47;5.40;;;3.17;;
9563;SDS011;4820;50.870;4.702;2024-01-15T06:46:19;5.77;;;3.03;;
9563;SDS011;4820;50.870;4.702;2024-01-15T06:48:48;5.53;;;2.87;;
9563;SDS011;4820;50.870;4.702;2024-01-15T06:51:15;5.97;;;3.07;;
9563;SDS011;4820;50.870;4.702;2024-01-15T06:53:41;4.83;;;3.03;;
9563;SDS011;4820;50.870;4.702;2024-01-15T06:56:07;5.50;;;2.50;;
9563;SDS011;4820;50.870;4.702;2024-01-15T06:58:33;3.97;;;2.43;;
9563;SDS011;4820;50.870;4.702;2024-01-15T07:00:59;4.27;;;2.60;;
9563;SDS011;4820;50.870;4.702;2024-01-15T07:03:25;7.60;;;2.63;;
9563;SDS011;4820;50.870;4.702;2024-01-15T07:05:51;3.30;;;2.03;;
9563;SDS011;4820;50.870;4.702;2024-01-15T07:08:16;3.70;;;2.03;;
9563;SDS011;4820;50.870;4.702;2024-01-15T07:10:42;6.33;;;2.40;;
9563;SDS011;4820;50.870;4.702;2024-01-15T07:13:08;3.40;;;2.00;;
9563;SDS011;4820;50.870;4.702;2024-01-15T07:15:34;4.57;;;2.30;;
9563;SDS011;4820;50.870;4.702;2024-01-15T07:17:59;3.40;;;2.23;;
9563;SDS011;4820;50.870;4.702;2024-01-15T07:20:25;4.47;;;2.50;;
9563;SDS011;4820;50.870;4.702;2024-01-15T07:22:51;5.03;;;2.50;;
9563;SDS011;4820;50.870;4.702;2024-01-15T07:25:16;4.80;;;2.30;;
9563;SDS011;4820;50.870;4.702;2024-01-15T07:27:42;6.00;;;2.23;;
9563;SDS011;4820;50.870;4.702;2024-01-15T07:30:10;3.43;;;2.10;;
9563;SDS011;4820;50.870;4.702;2024-01-15T07:32:37;6.13;;;2.20;;
9563;SDS011;4820;50.870;4.702;2024-01-15T07:35:03;4.37;;;2.40;;
9563;SDS011;4820;50.870;4.702;2024-01-15T07:37:29;5.80;;;2.40;;
9563;SDS011;4820;50.870;4.702;2024-01-15T07:39:54;7.40;;;2.63;;
9563;SDS011;4820;50.870;4.702;2024-01-15T07:42:20;5.57;;;2.77;;
9563;SDS011;4820;50.870;4.702;2024-01-15T07:44:46;3.47;;;2.47;;
9563;SDS011;4820;50.870;4.702;2024-01-15T07:47:12;3.90;;;2.60;;
9563;SDS011;4820;50.870;4.702;2024-01-15T07:49:38;6.17;;;2.70;;
9563;SDS011;4820;50.870;4.702;2024-01-15T07:52:03;5.20;;;2.77;;
9563;SDS011;4820;50.870;4.702;2024-01-15T07:54:32;5.33;;;3.00;;
9563;SDS011;4820;50.870;4.702;2024-01-15T07:57:01;7.73;;;2.90;;
9563;SDS011;4820;50.870;4.702;2024-01-15T07:59:28;5.53;;;3.00;;
9563;SDS011;4820;50.870;4.702;2024-01-15T08:01:54;4.30;;;2.93;;
9563;SDS011;4820;50.870;4.702;2024-01-15T08:04:20;3.83;;;2.90;;
9563;SDS011;4820;50.870;4.702;2024-01-15T08:06:47;4.63;;;3.07;;
9563;SDS011;4820;50.870;4.702;2024-01-15T08:09:13;4.50;;;3.00;;
9563;SDS011;4820;50.870;4.702;2024-01-15T08:11:39;5.00;;;2.83;;
9563;SDS011;4820;50.870;4.702;2024-01-15T08:14:09;5.43;;;3.20;;
9563;SDS011;4820;50.870;4.702;2024-01-15T08:16:36;6.00;;;3.03;;
9563;SDS011;4820;50.870;4.702;2024-01-15T08:19:02;4.80;;;2.97;;
9563;SDS011;4820;50.870;4.702;2024-01-15T08:21:28;6.13;;;3.10;;
9563;SDS011;4820;50.870;4.702;2024-01-15T08:23:56;6.03;;;3.47;;
9563;SDS011;4820;50.870;4.702;2024-01-15T08:26:22;7.10;;;3.90;;
9563;SDS011;4820;50.870;4.702;2024-01-15T08:28:47;6.47;;;4.23;;
9563;SDS011;4820;50.870;4.702;2024-01-15T08:31:13;6.50;;;3.73;;
9563;SDS011;4820;50.870;4.702;2024-01-15T08:33:39;6.73;;;3.87;;
9563;SDS011;4820;50.870;4.702;2024-01-15T08:36:04;5.23;;;3.90;;
9563;SDS011;4820;50.870;4.702;2024-01-15T08:38:32;6.73;;;4.20;;
9563;SDS011;4820;50.870;4.702;2024-01-15T08:40:58;7.63;;;3.63;;
9563;SDS011;4820;50.870;4.702;2024-01-15T08:43:25;5.33;;;3.47;;
9563;SDS011;4820;50.870;4.702;2024-01-15T08:45:52;6.33;;;3.33;;
9563;SDS011;4820;50.870;4.702;2024-01-15T08:48:17;6.87;;;3.13;;
9563;SDS011;4820;50.870;4.702;2024-01-15T08:50:43;4.90;;;3.13;;
9563;SDS011;4820;50.870;4.702;2024-01-15T08:53:12;3.60;;;2.57;;
9563;SDS011;4820;50.870;4.702;2024-01-15T08:55:38;7.20;;;2.70;;
9563;SDS011;4820;50.870;4.702;2024-01-15T08:58:04;6.82;;;2.55;;
9563;SDS011;4820;50.870;4.702;2024-01-15T09:00:31;5.87;;;2.97;;
9563;SDS011;4820;50.870;4.702;2024-01-15T09:02:56;6.00;;;2.70;;
9563;SDS011;4820;50.870;4.702;2024-01-15T09:05:22;6.60;;;2.60;;
9563;SDS011;4820;50.870;4.702;2024-01-15T09:07:48;5.63;;;2.37;;
9563;SDS011;4820;50.870;4.702;2024-01-15T09:10:14;7.23;;;2.50;;
9563;SDS011;4820;50.870;4.702;2024-01-15T09:12:40;3.77;;;2.03;;
9563;SDS011;4820;50.870;4.702;2024-01-15T09:15:05;5.37;;;2.00;;
9563;SDS011;4820;50.870;4.702;2024-01-15T09:17:31;6.00;;;2.20;;
9563;SDS011;4820;50.870;4.702;2024-01-15T09:19:57;7.37;;;2.17;;
9563;SDS011;4820;50.870;4.702;2024-01-15T09:22:23;5.17;;;1.83;;
9563;SDS011;4820;50.870;4.702;2024-01-15T09:24:48;4.00;;;1.90;;
9563;SDS011;4820;50.870;4.702;2024-01-15T09:27:14;8.40;;;2.60;;
9563;SDS011;4820;50.870;4.702;2024-01-15T09:29:40;5.17;;;1.90;;
9563;SDS011;4820;50.870;4.702;2024-01-15T09:32:07;9.43;;;2.10;;
9563;SDS011;4820;50.870;4.702;2024-01-15T09:34:33;6.30;;;2.23;;
9563;SDS011;4820;50.870;4.702;2024-01-15T09:37:00;4.28;;;2.10;;
9563;SDS011;4820;50.870;4.702;2024-01-15T09:39:26;6.63;;;2.37;;
9563;SDS011;4820;50.870;4.702;2024-01-15T09:41:52;5.30;;;2.10;;
9563;SDS011;4820;50.870;4.702;2024-01-15T09:44:19;5.30;;;2.00;;
9563;SDS011;4820;50.870;4.702;2024-01-15T09:46:46;5.17;;;2.13;;
9563;SDS011;4820;50.870;4.702;2024-01-15T09:49:15;5.80;;;2.00;;
9563;SDS011;4820;50.870;4.702;2024-01-15T09:51:41;4.97;;;1.93;;
9563;SDS011;4820;50.870;4.702;2024-01-15T09:54:08;4.23;;;1.70;;
9563;SDS011;4820;50.870;4.702;2024-01-15T09:56:34;5.87;;;2.10;;
9563;SDS011;4820;50.870;4.702;2024-01-15T09:59:00;3.83;;;1.57;;
9563;SDS011;4820;50.870;4.702;2024-01-15T10:01:26;4.83;;;1.80;;
9563;SDS011;4820;50.870;4.702;2024-01-15T10:03:52;3.23;;;1.93;;
9563;SDS011;4820;50.870;4.702;2024-01-15T10:06:21;6.95;;;2.17;;
9563;SDS011;4820;50.870;4.702;2024-01-15T10:08:47;4.93;;;1.60;;
9563;SDS011;4820;50.870;4.702;2024-01-15T10:11:14;4.87;;;1.70;;
9563;SDS011;4820;50.870;4.702;2024-01-15T10:13:42;2.83;;;1.43;;
9563;SDS011;4820;50.870;4.702;2024-01-15T10:16:08;3.45;;;1.83;;
9563;SDS011;4820;50.870;4.702;2024-01-15T10:18:34;7.32;;;2.10;;
9563;SDS011;4820;50.870;4.702;2024-01-15T10:21:02;7.63;;;2.03;;
9563;SDS011;4820;50.870;4.702;2024-01-15T10:23:29;4.93;;;1.90;;
9563;SDS011;4820;50.870;4.702;2024-01-15T10:25:57;3.35;;;1.80;;
9563;SDS011;4820;50.870;4.702;2024-01-15T10:28:23;8.00;;;2.30;;
9563;SDS011;4820;50.870;4.702;2024-01-15T10:30:52;4.78;;;1.80;;
9563;SDS011;4820;50.870;4.702;2024-01-15T10:33:25;7.07;;;1.83;;
9563;SDS011;4820;50.870;4.702;2024-01-15T10:35:53;5.50;;;2.00;;
9563;SDS011;4820;50.870;4.702;2024-01-15T10:38:20;5.45;;;1.70;;
9563;SDS011;4820;50.870;4.702;2024-01-15T10:40:47;5.13;;;1.60;;
9563;SDS011;4820;50.870;4.702;2024-01-15T10:43:17;5.90;;;2.00;;
9563;SDS011;4820;50.870;4.702;2024-01-15T10:45:49;5.27;;;1.90;;
9563;SDS011;4820;50.870;4.702;2024-01-15T10:48:16;5.93;;;2.10;;
9563;SDS011;4820;50.870;4.702;2024-01-15T10:50:43;4.93;;;1.83;;
9563;SDS011;4820;50.870;4.702;2024-01-15T10:53:09;6.00;;;2.00;;
9563;SDS011;4820;50.870;4.702;2024-01-15T10:55:37;5.82;;;1.80;;
9563;SDS011;4820;50.870;4.702;2024-01-15T10:58:04;5.13;;;2.05;;
9563;SDS011;4820;50.870;4.702;2024-01-15T11:00:33;3.95;;;2.15;;
9563;SDS011;4820;50.870;4.702;2024-01-15T11:03:03;5.93;;;2.03;;
9563;SDS011;4820;50.870;4.702;2024-01-15T11:05:37;7.27;;;1.87;;
9563;SDS011;4820;50.870;4.702;2024-01-15T11:08:06;6.03;;;1.80;;
9563;SDS011;4820;50.870;4.702;2024-01-15T11:10:42;6.22;;;1.70;;
9563;SDS011;4820;50.870;4.702;2024-01-15T11:18:26;5.07;;;1.77;;
9563;SDS011;4820;50.870;4.702;2024-01-15T11:26:38;4.78;;;1.77;;
9563;SDS011;4820;50.870;4.702;2024-01-15T11:37:27;5.38;;;2.00;;
9563;SDS011;4820;50.870;4.702;2024-01-15T11:40:00;8.32;;;1.70;;
9563;SDS011;4820;50.870;4.702;2024-01-15T11:42:28;9.43;;;2.00;;
9563;SDS011;4820;50.870;4.702;2024-01-15T11:44:55;3.20;;;1.40;;
9563;SDS011;4820;50.870;4.702;2024-01-15T11:47:33;4.28;;;1.65;;
9563;SDS011;4820;50.870;4.702;2024-01-15T11:50:22;5.32;;;1.65;;
9563;SDS011;4820;50.870;4.702;2024-01-15T11:52:55;4.47;;;1.70;;
9563;SDS011;4820;50.870;4.702;2024-01-15T11:55:27;4.90;;;1.77;;
9563;SDS011;4820;50.870;4.702;2024-01-15T11:57:57;4.50;;;1.60;;
9563;SDS011;4820;50.870;4.702;2024-01-15T12:00:26;4.77;;;1.60;;
9563;SDS011;4820;50.870;4.702;2024-01-15T12:02:53;4.40;;;1.37;;
9563;SDS011;4820;50.870;4.702;2024-01-15T12:05:19;3.28;;;1.40;;
9563;SDS011;4820;50.870;4.702;2024-01-15T12:07:46;4.53;;;1.63;;
9563;SDS011;4820;50.870;4.702;2024-01-15T12:10:14;6.20;;;2.00;;
9563;SDS011;4820;50.870;4.702;2024-01-15T12:15:09;4.50;;;1.77;;
9563;SDS011;4820;50.870;4.702;2024-01-15T12:17:35;6.32;;;1.60;;
9563;SDS011;4820;50.870;4.702;2024-01-15T12:20:03;5.45;;;1.75;;
9563;SDS011;4820;50.870;4.702;2024-01-15T12:22:29;5.28;;;1.58;;
9563;SDS011;4820;50.870;4.702;2024-01-15T12:24:55;5.75;;;1.60;;
9563;SDS011;4820;50.870;4.702;2024-01-15T12:27:21;6.13;;;1.63;;
9563;SDS011;4820;50.870;4.702;2024-01-15T12:29:47;5.20;;;1.73;;
9563;SDS011;4820;50.870;4.702;2024-01-15T12:32:12;3.47;;;1.27;;
9563;SDS011;4820;50.870;4.702;2024-01-15T12:34:38;4.00;;;1.60;;
9563;SDS011;4820;50.870;4.702;2024-01-15T12:37:04;3.78;;;1.38;;
9563;SDS011;4820;50.870;4.702;2024-01-15T12:39:29;8.32;;;1.70;;
9563;SDS011;4820;50.870;4.702;2024-01-15T12:41:57;6.20;;;2.00;;
9563;SDS011;4820;50.870;4.702;2024-01-15T12:44:22;4.43;;;1.50;;
9563;SDS011;4820;50.870;4.702;2024-01-15T12:46:49;10.88;;;2.00;;
9563;SDS011;4820;50.870;4.702;2024-01-15T12:49:14;4.13;;;1.55;;
9563;SDS011;4820;50.870;4.702;2024-01-15T12:51:40;8.45;;;1.60;;
9563;SDS011;4820;50.870;4.702;2024-01-15T12:54:06;4.93;;;1.45;;
9563;SDS011;4820;50.870;4.702;2024-01-15T12:56:31;2.55;;;1.40;;
9563;SDS011;4820;50.870;4.702;2024-01-15T12:58:57;4.35;;;1.52;;
9563;SDS011;4820;50.870;4.702;2024-01-15T13:01:23;5.27;;;1.60;;
9563;SDS011;4820;50.870;4.702;2024-01-15T13:03:48;6.85;;;1.60;;
9563;SDS011;4820;50.870;4.702;2024-01-15T13:06:14;3.78;;;1.40;;
9563;SDS011;4820;50.870;4.702;2024-01-15T13:08:39;3.42;;;1.48;;
9563;SDS011;4820;50.870;4.702;2024-01-15T13:11:05;5.10;;;1.67;;
9563;SDS011;4820;50.870;4.702;2024-01-15T13:13:31;5.43;;;2.40;;
9563;SDS011;4820;50.870;4.702;2024-01-15T13:15:59;4.38;;;1.55;;
9563;SDS011;4820;50.870;4.702;2024-01-15T13:18:25;4.13;;;1.80;;
9563;SDS011;4820;50.870;4.702;2024-01-15T13:20:51;2.13;;;1.00;;
9563;SDS011;4820;50.870;4.702;2024-01-15T13:23:17;3.35;;;0.90;;
9563;SDS011;4820;50.870;4.702;2024-01-15T13:25:42;1.48;;;0.80;;
9563;SDS011;4820;50.870;4.702;2024-01-15T13:28:08;1.25;;;0.70;;
9563;SDS011;4820;50.870;4.702;2024-01-15T13:30:34;1.17;;;0.75;;
9563;SDS011;4820;50.870;4.702;2024-01-15T13:32:59;1.83;;;0.68;;
9563;SDS011;4820;50.870;4.702;2024-01-15T13:35:29;2.60;;;0.83;;
9563;SDS011;4820;50.870;4.702;2024-01-15T13:37:55;1.60;;;0.97;;
9563;SDS011;4820;50.870;4.702;2024-01-15T13:40:21;3.87;;;1.00;;
9563;SDS011;4820;50.870;4.702;2024-01-15T13:42:47;1.73;;;1.00;;
9563;SDS011;4820;50.870;4.702;2024-01-15T13:45:13;1.60;;;0.77;;
9563;SDS011;4820;50.870;4.702;2024-01-15T13:47:40;1.87;;;0.83;;
9563;SDS011;4820;50.870;4.702;2024-01-15T13:50:07;3.00;;;1.00;;
9563;SDS011;4820;50.870;4.702;2024-01-15T13:52:33;3.10;;;1.30;;
9563;SDS011;4820;50.870;4.702;2024-01-15T13:54:59;1.83;;;1.03;;
9563;SDS011;4820;50.870;4.702;2024-01-15T13:57:25;3.30;;;1.10;;
9563;SDS011;4820;50.870;4.702;2024-01-15T13:59:51;1.40;;;0.90;;
9563;SDS011;4820;50.870;4.702;2024-01-15T14:02:16;3.17;;;1.00;;
9563;SDS011;4820;50.870;4.702;2024-01-15T14:04:42;1.60;;;0.83;;
9563;SDS011;4820;50.870;4.702;2024-01-15T14:07:08;1.13;;;0.80;;
9563;SDS011;4820;50.870;4.702;2024-01-15T14:09:34;1.10;;;0.70;;
9563;SDS011;4820;50.870;4.702;2024-01-15T14:11:59;1.87;;;0.83;;
9563;SDS011;4820;50.870;4.702;2024-01-15T14:14:25;2.47;;;0.90;;
9563;SDS011;4820;50.870;4.702;2024-01-15T14:16:51;2.20;;;0.83;;
9563;SDS011;4820;50.870;4.702;2024-01-15T14:19:16;1.83;;;0.90;;
9563;SDS011;4820;50.870;4.702;2024-01-15T14:21:43;1.77;;;0.80;;
9563;SDS011;4820;50.870;4.702;2024-01-15T14:24:08;1.93;;;1.07;;
9563;SDS011;4820;50.870;4.702;2024-01-15T14:26:34;2.60;;;1.20;;
9563;SDS011;4820;50.870;4.702;2024-01-15T14:29:00;3.42;;;0.90;;
9563;SDS011;4820;50.870;4.702;2024-01-15T14:31:25;1.85;;;0.95;;
9563;SDS011;4820;50.870;4.702;2024-01-15T14:33:53;0.77;;;0.50;;
9563;SDS011;4820;50.870;4.702;2024-01-15T14:36:20;1.45;;;0.90;;
9563;SDS011;4820;50.870;4.702;2024-01-15T14:38:45;1.17;;;0.70;;
9563;SDS011;4820;50.870;4.702;2024-01-15T14:41:11;1.47;;;0.80;;
9563;SDS011;4820;50.870;4.702;2024-01-15T14:43:38;1.50;;;0.82;;
9563;SDS011;4820;50.870;4.702;2024-01-15T14:46:03;2.30;;;0.77;;
9563;SDS011;4820;50.870;4.702;2024-01-15T14:48:30;1.67;;;0.77;;
9563;SDS011;4820;50.870;4.702;2024-01-15T14:50:56;1.50;;;0.90;;
9563;SDS011;4820;50.870;4.702;2024-01-15T14:53:22;1.98;;;0.95;;
9563;SDS011;4820;50.870;4.702;2024-01-15T14:55:47;2.42;;;1.00;;
9563;SDS011;4820;50.870;4.702;2024-01-15T14:58:13;1.40;;;1.20;;
9563;SDS011;4820;50.870;4.702;2024-01-15T15:00:38;2.50;;;1.00;;
9563;SDS011;4820;50.870;4.702;2024-01-15T15:03:04;1.90;;;1.10;;
9563;SDS011;4820;50.870;4.702;2024-01-15T15:05:30;4.20;;;1.60;;
9563;SDS011;4820;50.870;4.702;2024-01-15T15:07:55;3.67;;;1.47;;
9563;SDS011;4820;50.870;4.702;2024-01-15T15:10:21;2.97;;;1.90;;
9563;SDS011;4820;50.870;4.702;2024-01-15T15:12:47;2.57;;;1.70;;
9563;SDS011;4820;50.870;4.702;2024-01-15T15:15:12;3.17;;;1.90;;
9563;SDS011;4820;50.870;4.702;2024-01-15T15:17:38;3.93;;;1.80;;
9563;SDS011;4820;50.870;4.702;2024-01-15T15:20:05;3.47;;;2.00;;
9563;SDS011;4820;50.870;4.702;2024-01-15T15:22:33;3.73;;;2.10;;
9563;SDS011;4820;50.870;4.702;2024-01-15T15:24:59;2.93;;;1.77;;
9563;SDS011;4820;50.870;4.702;2024-01-15T15:27:24;6.43;;;2.10;;